Time;durP1;ratioP1;P1;durP2;ratioP2;P2;SDS_P1;SDS_P2;PMS_P1;PMS_P2;Temp;Humidity;BMP_temperature;BMP_pressure;BME280_temperature;BME280_humidity;BME280_pressure;Samples;Min_cycle;Max_cycle;Signal;HPM_P1;HPM_P2
2023/10/17 00:01:49;;;;;;;11.30;9.40;;;4.90;99.90;;;;;;5059725;28;20750;-62
2023/10/17 00:04:28;;;;;;;11.37;8.83;;;4.90;99.90;;;;;;5059842;28;20589;-62
2023/10/17 00:06:58;;;;;;;14.27;9.33;;;4.90;78.20;;;;;;5060134;28;20548;-62
2023/10/17 00:09:29;;;;;;;15.20;9.40;;;4.90;46.80;;;;;;5059343;28;20489;-62
2023/10/17 00:12:03;;;;;;;13.00;11.03;;;4.90;40.90;;;;;;5059575;28;20466;-62
2023/10/17 00:14:44;;;;;;;15.60;9.90;;;4.90;17.70;;;;;;5060169;28;20499;-62
2023/10/17 00:17:13;;;;;;;12.47;9.53;;;4.90;5.10;;;;;;5059776;28;20473;-62
2023/10/17 00:19:41;;;;;;;11.33;8.43;;;4.90;1.00;;;;;;5058269;28;20502;-62
2023/10/17 00:22:09;;;;;;;12.50;9.60;;;4.70;1.00;;;;;;5059372;28;20462;-62
2023/10/17 00:24:38;;;;;;;10.97;8.77;;;4.70;70.90;;;;;;5059710;28;20909;-62
2023/10/17 00:27:06;;;;;;;14.80;10.90;;;4.70;99.90;;;;;;5059739;28;20539;-62
2023/10/17 00:29:34;;;;;;;12.23;10.20;;;4.70;99.90;;;;;;5059363;28;20458;-62
2023/10/17 00:32:01;;;;;;;14.40;10.90;;;4.70;99.90;;;;;;5059241;28;20463;-61
2023/10/17 00:34:28;;;;;;;11.80;9.77;;;4.70;99.90;;;;;;5059132;28;20460;-62
2023/10/17 00:37:06;;;;;;;16.40;11.63;;;4.70;99.90;;;;;;5059205;28;20468;-61
2023/10/17 00:39:36;;;;;;;12.87;10.40;;;4.70;99.90;;;;;;5058806;28;20446;-62
2023/10/17 00:42:27;;;;;;;15.60;11.67;;;4.70;99.90;;;;;;5059157;28;20438;-61
2023/10/17 00:44:55;;;;;;;15.63;11.37;;;4.70;99.90;;;;;;5059018;28;20509;-61
2023/10/17 00:47:23;;;;;;;16.20;11.20;;;4.70;99.90;;;;;;5058769;28;20485;-62
2023/10/17 00:49:50;;;;;;;12.37;10.40;;;4.60;99.90;;;;;;5059149;28;20469;-62
2023/10/17 00:52:24;;;;;;;17.10;11.90;;;4.70;99.90;;;;;;5058474;28;20475;-60
2023/10/17 00:54:53;;;;;;;14.40;11.70;;;4.70;99.90;;;;;;5058859;28;20484;-61
2023/10/17 00:57:26;;;;;;;12.83;11.10;;;4.70;99.90;;;;;;5059239;28;20466;-62
2023/10/17 00:59:55;;;;;;;13.03;10.50;;;4.70;99.90;;;;;;5058691;28;20480;-61
2023/10/17 01:02:24;;;;;;;15.97;11.23;;;4.70;99.90;;;;;;5058640;28;20832;-62
2023/10/17 01:04:51;;;;;;;14.13;10.93;;;4.60;99.90;;;;;;5058995;28;20494;-62
2023/10/17 01:07:26;;;;;;;13.33;10.83;;;4.60;99.90;;;;;;5058584;28;20462;-62
2023/10/17 01:10:00;;;;;;;15.63;10.90;;;4.50;99.90;;;;;;5058826;28;20573;-62
2023/10/17 01:12:31;;;;;;;14.00;12.37;;;4.70;99.90;;;;;;5058917;28;20531;-62
2023/10/17 01:14:58;;;;;;;13.83;11.00;;;4.60;99.90;;;;;;5058380;28;20859;-62
2023/10/17 01:17:26;;;;;;;13.80;10.37;;;4.60;99.90;;;;;;5058284;28;20476;-62
2023/10/17 01:19:54;;;;;;;14.97;10.43;;;4.60;99.90;;;;;;5058249;28;20516;-62
2023/10/17 01:22:21;;;;;;;12.80;10.03;;;4.50;99.90;;;;;;5058641;28;20768;-62
2023/10/17 01:24:50;;;;;;;11.00;9.83;;;4.50;99.90;;;;;;5058337;28;20533;-62
2023/10/17 01:27:17;;;;;;;14.93;11.80;;;4.40;99.90;;;;;;5058095;28;20882;-62
2023/10/17 01:29:44;;;;;;;14.70;11.80;;;4.50;99.90;;;;;;5058162;28;20437;-62
2023/10/17 01:32:12;;;;;;;14.50;9.93;;;4.50;99.90;;;;;;5057921;28;20568;-62
2023/10/17 01:34:40;;;;;;;16.10;10.80;;;4.50;99.90;;;;;;5058134;28;20433;-62
2023/10/17 01:37:10;;;;;;;11.73;10.43;;;4.50;99.90;;;;;;5058132;28;20465;-62
2023/10/17 01:39:38;;;;;;;13.20;11.80;;;4.50;99.90;;;;;;5058345;28;20926;-62
2023/10/17 01:42:08;;;;;;;13.60;10.30;;;4.50;99.90;;;;;;5057530;28;20458;-62
2023/10/17 01:44:35;;;;;;;12.83;10.83;;;4.50;99.90;;;;;;5058078;28;20749;-63
2023/10/17 01:47:07;;;;;;;12.87;11.20;;;4.40;99.90;;;;;;5057136;28;20469;-62
2023/10/17 01:49:36;;;;;;;12.70;10.20;;;4.40;99.90;;;;;;5057535;28;20467;-62
2023/10/17 01:52:06;;;;;;;16.33;10.47;;;4.40;99.90;;;;;;5056771;28;20462;-62
2023/10/17 01:54:36;;;;;;;12.83;10.77;;;4.40;99.90;;;;;;5057803;28;20961;-62
2023/10/17 01:57:07;;;;;;;16.13;10.03;;;4.40;99.90;;;;;;5057819;28;20766;-62
2023/10/17 01:59:36;;;;;;;13.13;11.03;;;4.40;99.90;;;;;;5057722;28;20770;-62
2023/10/17 02:02:04;;;;;;;14.00;10.60;;;4.40;99.90;;;;;;5057231;28;20458;-62
2023/10/17 02:04:35;;;;;;;12.90;11.10;;;4.40;99.90;;;;;;5057788;28;20490;-62
2023/10/17 02:07:03;;;;;;;12.43;9.80;;;4.50;99.90;;;;;;5057791;28;20469;-62
2023/10/17 02:12:24;;;;;;;14.33;10.17;;;4.30;99.90;;;;;;5114695;27;21038;-62
2023/10/17 02:14:52;;;;;;;13.03;10.00;;;4.30;99.90;;;;;;5115383;28;20848;-62
2023/10/17 02:17:19;;;;;;;13.70;10.90;;;4.40;99.90;;;;;;5114570;28;20543;-63
2023/10/17 02:19:47;;;;;;;10.77;9.67;;;4.40;99.90;;;;;;5114913;28;20455;-62
2023/10/17 02:22:16;;;;;;;12.80;10.67;;;4.40;99.90;;;;;;5114940;28;20855;-62
2023/10/17 02:24:43;;;;;;;14.63;10.70;;;4.40;99.90;;;;;;5115044;28;20895;-62
2023/10/17 02:27:12;;;;;;;15.60;12.27;;;4.40;99.90;;;;;;5114950;28;20455;-62
2023/10/17 02:29:44;;;;;;;14.03;10.90;;;4.40;99.90;;;;;;5114536;28;20452;-62
2023/10/17 02:32:12;;;;;;;13.23;10.00;;;4.40;99.90;;;;;;5114843;28;20488;-62
2023/10/17 02:34:40;;;;;;;13.80;10.07;;;4.30;99.90;;;;;;5114991;28;20499;-63
2023/10/17 02:37:11;;;;;;;13.13;10.13;;;4.40;99.90;;;;;;5114835;28;20459;-62
2023/10/17 02:39:39;;;;;;;13.87;9.53;;;4.40;99.90;;;;;;5114306;28;20441;-63
2023/10/17 02:42:10;;;;;;;16.10;10.83;;;4.30;99.90;;;;;;5114367;28;20452;-63
2023/10/17 02:44:43;;;;;;;12.33;10.13;;;4.40;99.90;;;;;;5114761;28;20460;-62
2023/10/17 02:47:12;;;;;;;11.60;10.40;;;4.30;99.90;;;;;;5114639;28;20441;-63
2023/10/17 02:49:43;;;;;;;11.83;10.17;;;4.30;99.90;;;;;;5114020;28;20510;-63
2023/10/17 02:52:10;;;;;;;11.83;10.50;;;4.30;99.90;;;;;;5114186;28;20492;-63
2023/10/17 02:54:55;;;;;;;13.07;10.10;;;4.40;99.90;;;;;;5114331;28;20455;-63
2023/10/17 02:57:24;;;;;;;12.20;9.90;;;4.30;99.90;;;;;;5114141;28;20459;-63
2023/10/17 02:59:56;;;;;;;13.27;10.57;;;4.30;99.90;;;;;;5114461;28;20451;-63
2023/10/17 03:02:36;;;;;;;12.13;10.40;;;4.30;99.90;;;;;;5114672;28;20459;-63
2023/10/17 03:05:11;;;;;;;12.60;11.23;;;4.40;99.90;;;;;;5113915;28;20812;-62
2023/10/17 03:07:38;;;;;;;13.03;9.90;;;4.40;99.90;;;;;;5113336;28;20791;-63
2023/10/17 03:10:07;;;;;;;13.70;9.67;;;4.40;99.90;;;;;;5114078;28;20956;-63
2023/10/17 03:12:50;;;;;;;12.70;10.27;;;4.40;99.90;;;;;;5114163;28;20544;-63
2023/10/17 03:15:22;;;;;;;11.60;10.37;;;4.40;99.90;;;;;;5114116;28;20455;-63
2023/10/17 03:17:53;;;;;;;11.70;10.43;;;4.40;99.90;;;;;;5114068;28;20482;-64
2023/10/17 03:20:36;;;;;;;12.60;9.97;;;4.50;99.90;;;;;;5114130;28;20464;-63
2023/10/17 03:23:03;;;;;;;12.60;9.67;;;4.40;99.90;;;;;;5103791;28;20460;-63
2023/10/17 03:25:37;;;;;;;13.43;10.00;;;4.50;99.90;;;;;;5100229;28;20456;-63
2023/10/17 03:28:04;;;;;;;12.93;10.60;;;4.50;99.90;;;;;;5100315;28;20507;-63
2023/10/17 03:30:32;;;;;;;13.97;9.27;;;4.50;99.90;;;;;;5100091;28;20508;-63
2023/10/17 03:33:08;;;;;;;12.87;9.70;;;4.50;99.90;;;;;;5100082;28;20945;-63
2023/10/17 03:35:49;;;;;;;11.30;8.83;;;4.60;99.90;;;;;;5100119;28;20457;-64
2023/10/17 03:38:17;;;;;;;13.60;9.57;;;4.60;99.90;;;;;;5099674;28;20499;-63
2023/10/17 03:40:53;;;;;;;11.23;9.80;;;4.60;99.90;;;;;;5100080;28;20456;-64
2023/10/17 03:43:22;;;;;;;14.10;9.47;;;4.50;99.90;;;;;;5099418;28;20460;-64
2023/10/17 03:46:03;;;;;;;11.30;10.00;;;4.50;99.90;;;;;;5099306;28;20505;-63
2023/10/17 03:48:36;;;;;;;13.30;9.63;;;4.50;99.90;;;;;;5099750;28;20464;-66
2023/10/17 03:51:11;;;;;;;11.00;8.70;;;4.60;99.90;;;;;;5099629;28;20488;-66
2023/10/17 03:53:46;;;;;;;11.37;8.77;;;4.50;99.90;;;;;;5099514;28;20557;-66
2023/10/17 03:56:23;;;;;;;11.47;9.60;;;4.50;99.90;;;;;;5099700;28;20467;-66
2023/10/17 03:58:53;;;;;;;11.00;9.20;;;4.50;99.90;;;;;;5099879;28;20461;-66
2023/10/17 04:01:23;;;;;;;10.20;8.63;;;4.50;99.90;;;;;;5099236;28;20517;-66
2023/10/17 04:03:54;;;;;;;11.47;9.07;;;4.40;99.90;;;;;;5099397;28;20460;-66
2023/10/17 04:06:34;;;;;;;12.73;10.20;;;4.50;99.90;;;;;;5099408;28;20509;-66
2023/10/17 04:11:58;;;;;;;11.97;9.70;;;4.50;99.90;;;;;;5094342;27;20540;-65
2023/10/17 04:14:33;;;;;;;11.53;10.00;;;4.60;99.90;;;;;;5094410;28;20486;-65
2023/10/17 04:17:02;;;;;;;10.43;9.33;;;4.60;99.90;;;;;;5094217;28;20715;-65
2023/10/17 04:19:31;;;;;;;10.53;8.83;;;4.50;99.90;;;;;;5094306;28;20463;-66
2023/10/17 04:22:07;;;;;;;12.40;9.70;;;4.60;99.90;;;;;;5094786;28;20491;-66
2023/10/17 04:24:35;;;;;;;10.83;9.43;;;4.60;99.90;;;;;;5094591;28;20453;-66
2023/10/17 04:27:19;;;;;;;14.07;9.80;;;4.60;99.90;;;;;;5094306;28;20903;-66
2023/10/17 04:29:51;;;;;;;10.47;9.03;;;4.60;99.90;;;;;;5094595;28;20431;-66
2023/10/17 04:32:19;;;;;;;11.17;9.07;;;4.60;99.90;;;;;;5094494;28;20477;-66
2023/10/17 04:34:47;;;;;;;15.20;13.37;;;4.60;99.90;;;;;;5094514;28;20460;-66
2023/10/17 04:37:16;;;;;;;14.67;11.83;;;4.60;99.90;;;;;;5094036;28;20463;-65
2023/10/17 04:39:49;;;;;;;11.53;9.77;;;4.70;99.90;;;;;;5094439;28;20508;-66
2023/10/17 04:42:26;;;;;;;11.03;9.83;;;4.70;99.90;;;;;;5094244;28;20467;-66
2023/10/17 04:44:52;;;;;;;11.23;9.47;;;4.60;99.90;;;;;;5093888;28;20541;-65
2023/10/17 04:47:30;;;;;;;13.20;10.33;;;4.70;99.90;;;;;;5094139;28;20483;-66
2023/10/17 04:49:56;;;;;;;11.97;10.50;;;4.70;99.90;;;;;;5094236;28;20487;-66
2023/10/17 04:52:30;;;;;;;11.40;9.40;;;4.60;99.90;;;;;;5094398;28;20889;-66
2023/10/17 04:55:17;;;;;;;15.33;10.00;;;4.70;99.90;;;;;;5092623;28;20461;-66
2023/10/17 04:57:55;;;;;;;10.10;8.43;;;4.70;99.90;;;;;;5092631;28;20494;-65
2023/10/17 05:00:37;;;;;;;13.90;8.70;;;4.70;99.90;;;;;;5092695;28;20861;-65
2023/10/17 05:03:13;;;;;;;10.63;9.20;;;4.60;99.90;;;;;;5092102;28;20473;-65
2023/10/17 05:05:45;;;;;;;10.40;9.30;;;4.60;99.90;;;;;;5091892;28;20502;-65
2023/10/17 05:08:18;;;;;;;13.27;9.63;;;4.60;99.90;;;;;;5092491;28;20461;-65
2023/10/17 06:17:20;;;;;;;16.27;11.90;;;4.80;99.90;;;;;;5077326;28;20460;-68
2023/10/17 06:19:49;;;;;;;17.73;12.33;;;4.90;99.90;;;;;;5078737;28;20438;-68
2023/10/17 06:30:49;;;;;;;14.30;9.53;;;5.10;99.90;;;;;;5074437;28;20443;-68
2023/10/17 06:33:19;;;;;;;14.70;11.57;;;5.10;99.90;;;;;;5077712;28;20485;-68
2023/10/17 06:35:54;;;;;;;16.13;10.57;;;5.10;99.90;;;;;;5078599;28;20533;-68
2023/10/17 06:38:27;;;;;;;15.23;12.40;;;5.20;99.90;;;;;;5078842;28;20464;-68
2023/10/17 06:41:11;;;;;;;28.60;13.57;;;5.30;99.90;;;;;;5078763;28;20484;-68
2023/10/17 06:43:39;;;;;;;14.67;11.03;;;5.30;99.90;;;;;;5078636;28;20505;-69
2023/10/17 06:46:12;;;;;;;13.80;11.33;;;5.40;99.90;;;;;;5078567;28;20468;-67
2023/10/17 06:48:48;;;;;;;13.83;12.33;;;5.50;99.90;;;;;;5078613;28;20504;-68
2023/10/17 06:51:35;;;;;;;13.37;11.93;;;5.50;99.90;;;;;;5078265;28;20489;-68
2023/10/17 06:54:06;;;;;;;14.43;11.43;;;5.60;99.90;;;;;;5078416;28;20567;-69
2023/10/17 06:56:38;;;;;;;14.23;10.87;;;5.70;99.90;;;;;;5077721;28;20551;-68
2023/10/17 06:59:21;;;;;;;15.77;11.20;;;5.70;99.90;;;;;;5077932;28;20462;-68
2023/10/17 07:02:03;;;;;;;14.30;12.80;;;5.80;99.90;;;;;;5078149;28;20437;-68
2023/10/17 07:04:33;;;;;;;16.63;12.80;;;5.70;99.90;;;;;;5077033;28;20481;-69
2023/10/17 07:07:03;;;;;;;19.20;12.60;;;5.80;99.90;;;;;;5077312;28;20807;-69
2023/10/17 07:09:37;;;;;;;17.67;13.60;;;5.80;99.90;;;;;;5077347;28;20439;-68
2023/10/17 07:12:06;;;;;;;20.33;14.17;;;5.90;99.90;;;;;;5077412;28;20938;-68
2023/10/17 07:14:36;;;;;;;15.63;12.90;;;6.00;99.90;;;;;;5078155;28;20917;-68
2023/10/17 07:17:17;;;;;;;17.77;13.80;;;6.00;99.90;;;;;;5077598;28;20436;-68
2023/10/17 07:19:47;;;;;;;15.23;11.90;;;6.10;99.90;;;;;;5077178;28;20436;-68
2023/10/17 07:22:16;;;;;;;16.00;13.93;;;6.10;99.90;;;;;;5076295;28;20511;-68
2023/10/17 07:24:44;;;;;;;13.20;11.30;;;6.20;99.90;;;;;;5075997;28;20518;-68
2023/10/17 07:27:26;;;;;;;16.83;11.80;;;6.20;99.90;;;;;;5075616;28;20465;-68
2023/10/17 07:30:01;;;;;;;12.60;11.30;;;6.30;99.90;;;;;;5075289;28;20534;-67
2023/10/17 07:32:44;;;;;;;14.30;10.93;;;6.40;99.90;;;;;;5076009;28;20550;-67
2023/10/17 07:35:16;;;;;;;19.53;12.30;;;6.40;99.90;;;;;;5076090;28;20468;-68
2023/10/17 07:37:55;;;;;;;14.63;10.77;;;6.40;99.90;;;;;;5076322;28;20461;-68
2023/10/17 07:40:33;;;;;;;13.00;9.60;;;6.50;99.90;;;;;;5072120;28;20465;-68
2023/10/17 07:43:05;;;;;;;14.23;10.60;;;6.50;99.90;;;;;;5075741;28;20461;-67
2023/10/17 07:45:38;;;;;;;13.77;10.10;;;6.60;99.90;;;;;;5071847;28;20443;-68
2023/10/17 07:48:19;;;;;;;14.17;10.60;;;6.70;99.90;;;;;;5073986;28;20776;-67
2023/10/17 07:50:49;;;;;;;18.50;11.63;;;6.70;99.90;;;;;;5075970;28;20470;-67
2023/10/17 07:53:20;;;;;;;12.20;10.37;;;6.80;99.90;;;;;;5075057;28;20457;-67
2023/10/17 07:55:52;;;;;;;16.57;10.83;;;6.90;99.90;;;;;;5075478;28;20461;-67
2023/10/17 07:58:36;;;;;;;13.47;9.30;;;7.00;99.90;;;;;;5074671;28;20522;-67
2023/10/17 08:01:07;;;;;;;14.63;9.20;;;7.10;99.90;;;;;;5073579;28;20457;-67
2023/10/17 08:03:39;;;;;;;11.53;8.50;;;7.20;99.90;;;;;;5070554;28;20454;-67
2023/10/17 08:06:08;;;;;;;12.43;9.73;;;7.40;99.90;;;;;;5065597;28;20531;-67
2023/10/17 08:08:42;;;;;;;9.73;8.63;;;7.50;99.90;;;;;;5073458;28;20523;-66
2023/10/17 08:11:26;;;;;;;9.30;8.00;;;7.70;99.90;;;;;;5054345;28;20490;-66
2023/10/17 08:13:53;;;;;;;9.50;6.90;;;7.80;99.90;;;;;;5062884;28;20465;-66
2023/10/17 08:16:25;;;;;;;9.67;7.17;;;8.00;99.90;;;;;;5075968;28;20726;-67
2023/10/17 08:18:58;;;;;;;8.23;6.67;;;8.20;99.90;;;;;;5076069;28;20916;-66
2023/10/17 08:21:35;;;;;;;6.67;5.97;;;8.50;99.90;;;;;;5075814;28;20453;-66
2023/10/17 08:24:05;;;;;;;10.00;5.90;;;8.60;99.90;;;;;;5076687;28;20496;-66
2023/10/17 08:26:40;;;;;;;6.73;5.17;;;8.70;99.90;;;;;;5076419;28;20446;-66
2023/10/17 08:29:08;;;;;;;8.90;6.07;;;8.70;99.90;;;;;;5076161;28;20951;-66
2023/10/17 08:31:39;;;;;;;13.17;6.30;;;8.70;99.90;;;;;;5075476;28;20954;-65
2023/10/17 08:34:12;;;;;;;7.90;5.67;;;8.70;99.90;;;;;;5075590;28;20518;-65
2023/10/17 08:36:46;;;;;;;6.97;5.80;;;8.80;99.90;;;;;;5074368;28;20772;-65
2023/10/17 08:39:51;;;;;;;6.60;5.30;;;8.80;99.90;;;;;;5073963;28;20453;-65
2023/10/17 08:42:30;;;;;;;10.73;5.63;;;8.90;99.90;;;;;;5073815;28;20457;-65
2023/10/17 08:44:58;;;;;;;6.70;4.73;;;8.90;99.90;;;;;;5073174;28;20465;-65
2023/10/17 08:47:30;;;;;;;6.80;4.73;;;8.80;1.00;;;;;;5073252;28;21128;-65
2023/10/17 08:50:01;;;;;;;8.20;5.20;;;9.00;99.90;;;;;;5073384;28;20519;-65
2023/10/17 08:52:31;;;;;;;6.00;4.67;;;9.00;99.90;;;;;;5074314;28;20481;-65
2023/10/17 08:54:59;;;;;;;5.77;4.40;;;8.90;99.90;;;;;;5074086;28;20461;-65
2023/10/17 08:57:28;;;;;;;8.50;5.13;;;8.80;99.90;;;;;;5075359;28;20531;-64
2023/10/17 09:03:02;;;;;;;12.57;5.37;;;9.00;99.90;;;;;;5132537;27;20597;-64
2023/10/17 09:05:29;;;;;;;6.30;5.30;;;9.50;99.90;;;;;;5133082;28;20458;-63
2023/10/17 09:07:57;;;;;;;8.00;5.70;;;9.90;99.90;;;;;;5133949;28;20516;-63
2023/10/17 09:10:36;;;;;;;7.00;4.97;;;10.20;99.90;;;;;;5135370;28;20451;-63
2023/10/17 09:16:10;;;;;;;5.10;3.77;;;11.10;99.90;;;;;;5132452;27;20443;-63
2023/10/17 09:18:42;;;;;;;4.93;3.20;;;11.50;99.90;;;;;;5133169;27;20461;-63
2023/10/17 09:21:13;;;;;;;5.63;3.50;;;11.70;99.90;;;;;;5120690;27;20610;-64
2023/10/17 09:23:41;;;;;;;5.63;3.27;;;11.90;99.90;;;;;;5112636;28;20956;-63
2023/10/17 09:26:10;;;;;;;4.83;3.07;;;12.00;99.90;;;;;;5112093;28;20460;-63
2023/10/17 09:28:39;;;;;;;4.83;2.70;;;12.20;99.90;;;;;;5113008;28;20460;-63
2023/10/17 09:31:08;;;;;;;3.40;2.73;;;12.50;99.90;;;;;;5114529;28;20462;-63
2023/10/17 09:33:43;;;;;;;5.00;2.77;;;12.70;1.00;;;;;;5114621;28;20482;-63
2023/10/17 09:36:12;;;;;;;3.07;2.70;;;13.00;1.00;;;;;;5114116;28;20455;-62
2023/10/17 09:38:43;;;;;;;5.17;2.67;;;13.20;1.00;;;;;;5114632;28;20757;-63
2023/10/17 09:41:17;;;;;;;4.20;2.50;;;13.40;99.90;;;;;;5114549;28;20492;-63
2023/10/17 09:43:46;;;;;;;3.93;2.53;;;13.50;99.90;;;;;;5114213;28;20501;-62
2023/10/17 09:46:14;;;;;;;3.97;2.40;;;13.70;99.90;;;;;;5112659;28;20562;-62
2023/10/17 09:48:46;;;;;;;3.13;2.47;;;13.80;99.90;;;;;;5112440;28;20485;-62
2023/10/17 09:51:20;;;;;;;3.03;2.43;;;14.00;99.90;;;;;;5113083;28;20455;-63
2023/10/17 09:53:53;;;;;;;2.50;2.07;;;14.20;53.70;;;;;;5113991;28;20498;-62
2023/10/17 09:56:25;;;;;;;4.73;2.87;;;14.30;8.80;;;;;;5113755;28;20477;-62
2023/10/17 09:58:57;;;;;;;4.43;2.87;;;14.20;1.00;;;;;;5113901;28;20463;-62
2023/10/17 10:01:27;;;;;;;3.43;2.50;;;14.20;1.00;;;;;;5113614;28;20502;-63
2023/10/17 10:03:58;;;;;;;2.90;2.37;;;14.20;1.00;;;;;;5113662;28;20456;-62
2023/10/17 10:06:27;;;;;;;3.17;2.37;;;14.20;1.00;;;;;;5114011;28;20466;-63
2023/10/17 10:08:59;;;;;;;2.97;2.10;;;14.50;1.00;;;;;;5113358;28;20558;-62
2023/10/17 10:11:55;;;;;;;2.90;2.33;;;14.80;1.00;;;;;;5114300;28;20825;-62
2023/10/17 10:14:43;;;;;;;2.90;2.57;;;14.80;1.00;;;;;;5098551;28;20467;-63
2023/10/17 10:17:14;;;;;;;3.20;2.23;;;14.90;1.00;;;;;;5100266;28;20904;-63
2023/10/17 10:20:04;;;;;;;3.43;2.40;;;15.00;1.00;;;;;;5100219;28;20873;-63
2023/10/17 10:22:53;;;;;;;5.53;3.00;;;15.00;1.00;;;;;;5100158;28;21011;-62
2023/10/17 10:25:22;;;;;;;3.77;2.23;;;15.10;1.00;;;;;;5100089;28;20464;-62
2023/10/17 10:28:33;;;;;;;3.40;2.57;;;15.00;1.00;;;;;;5099445;28;20555;-62
2023/10/17 10:31:07;;;;;;;3.43;2.43;;;15.10;1.00;;;;;;5094570;28;20472;-63
2023/10/17 10:33:35;;;;;;;4.23;2.70;;;15.00;1.00;;;;;;5100218;28;20551;-61
2023/10/17 10:36:05;;;;;;;3.23;2.30;;;14.90;1.00;;;;;;5099574;28;20467;-62
2023/10/17 10:38:32;;;;;;;3.87;2.40;;;15.00;1.00;;;;;;5099519;28;20554;-62
2023/10/17 10:41:08;;;;;;;2.63;2.20;;;15.10;1.00;;;;;;5099553;28;20460;-62
2023/10/17 10:43:36;;;;;;;3.80;2.40;;;15.30;1.00;;;;;;5100039;28;20663;-62
2023/10/17 10:46:03;;;;;;;5.00;2.30;;;15.20;1.00;;;;;;5099593;28;20452;-63
2023/10/17 10:48:32;;;;;;;2.87;2.67;;;15.20;1.00;;;;;;5099267;28;20456;-63
2023/10/17 10:51:00;;;;;;;3.97;2.13;;;15.40;99.90;;;;;;5099695;28;20460;-63
2023/10/17 10:53:31;;;;;;;6.27;2.33;;;15.50;99.90;;;;;;5113138;28;20459;-62
2023/10/17 10:56:00;;;;;;;3.00;2.70;;;15.60;99.90;;;;;;5119810;28;20516;-62
2023/10/17 10:58:29;;;;;;;2.73;2.30;;;15.60;99.90;;;;;;5119695;28;20462;-63
2023/10/17 11:01:02;;;;;;;5.47;2.57;;;15.80;99.90;;;;;;5118698;28;20518;-62
2023/10/17 11:03:30;;;;;;;2.77;2.10;;;16.20;99.90;;;;;;5119540;28;20451;-62
2023/10/17 11:05:59;;;;;;;3.23;2.17;;;16.20;99.90;;;;;;5117958;28;20546;-63
2023/10/17 11:08:34;;;;;;;2.67;2.20;;;16.30;99.90;;;;;;5118297;28;20459;-63
2023/10/17 11:11:03;;;;;;;3.10;2.10;;;16.20;99.90;;;;;;5119467;28;20451;-63
2023/10/17 11:13:35;;;;;;;2.60;2.40;;;16.30;99.90;;;;;;5119568;28;20553;-63
2023/10/17 11:16:06;;;;;;;2.40;2.20;;;16.40;99.90;;;;;;5119108;28;20813;-63
2023/10/17 11:18:34;;;;;;;2.73;2.40;;;16.50;99.90;;;;;;5119590;28;20790;-62
2023/10/17 11:21:04;;;;;;;2.90;2.60;;;16.50;99.90;;;;;;5118026;28;20868;-63
2023/10/17 11:23:35;;;;;;;2.77;2.20;;;16.60;99.90;;;;;;5117665;28;20882;-62
2023/10/17 11:26:07;;;;;;;2.70;2.50;;;16.70;99.90;;;;;;5116790;28;20505;-62
2023/10/17 11:28:35;;;;;;;3.63;3.10;;;16.90;99.90;;;;;;5117328;28;20505;-63
2023/10/17 11:31:12;;;;;;;2.33;2.10;;;16.90;99.90;;;;;;5117335;28;20901;-62
2023/10/17 11:33:45;;;;;;;3.07;2.20;;;16.70;99.90;;;;;;5116982;28;20455;-61
2023/10/17 11:36:16;;;;;;;2.90;2.50;;;16.70;99.90;;;;;;5117786;28;20472;-62
2023/10/17 11:38:46;;;;;;;3.60;2.20;;;16.70;99.90;;;;;;5118815;28;20455;-63
2023/10/17 11:41:17;;;;;;;2.60;2.10;;;16.70;99.90;;;;;;5118868;28;20455;-62
2023/10/17 11:43:53;;;;;;;3.60;2.50;;;16.90;99.90;;;;;;5119197;28;20554;-62
2023/10/17 11:46:30;;;;;;;2.90;2.30;;;17.30;99.90;;;;;;5118922;28;20459;-63
2023/10/17 11:49:20;;;;;;;2.63;2.37;;;17.40;99.90;;;;;;5117905;28;20557;-63
2023/10/17 11:51:51;;;;;;;3.23;2.77;;;17.60;99.90;;;;;;5117679;28;20463;-61
2023/10/17 11:54:22;;;;;;;3.50;2.67;;;17.60;99.90;;;;;;5116743;28;20422;-62
2023/10/17 11:56:50;;;;;;;3.90;2.87;;;17.60;99.90;;;;;;5117154;28;20508;-61
2023/10/17 11:59:18;;;;;;;4.93;2.50;;;17.70;99.90;;;;;;5117745;28;20800;-62
2023/10/17 12:01:46;;;;;;;2.53;1.93;;;17.50;99.90;;;;;;5117315;28;20499;-62
2023/10/17 12:04:16;;;;;;;3.03;2.73;;;17.40;99.90;;;;;;5117771;28;20478;-61
2023/10/17 12:06:44;;;;;;;3.10;2.20;;;17.70;99.90;;;;;;5118387;28;20459;-62
2023/10/17 12:09:22;;;;;;;3.90;1.90;;;17.80;99.90;;;;;;5118770;28;20884;-61
2023/10/17 12:11:53;;;;;;;3.40;3.10;;;17.80;99.90;;;;;;5118281;28;20956;-61
2023/10/17 12:14:21;;;;;;;2.37;2.13;;;18.00;99.90;;;;;;5117860;28;20516;-61
2023/10/17 12:16:49;;;;;;;3.80;2.70;;;18.10;99.90;;;;;;5118238;28;20459;-62
2023/10/17 12:19:18;;;;;;;3.50;2.77;;;18.30;99.90;;;;;;5117594;28;20550;-62
2023/10/17 12:21:48;;;;;;;3.30;2.40;;;18.10;99.90;;;;;;5118160;28;20745;-62
2023/10/17 12:24:19;;;;;;;2.87;2.50;;;17.90;99.90;;;;;;5118045;28;20459;-61
2023/10/17 12:26:49;;;;;;;3.00;2.73;;;18.20;99.90;;;;;;5118048;28;20553;-61
2023/10/17 12:29:19;;;;;;;2.80;2.60;;;18.00;99.90;;;;;;5116020;28;20487;-61
2023/10/17 12:31:46;;;;;;;3.20;2.33;;;17.60;99.90;;;;;;5117077;28;20455;-62
2023/10/17 12:34:16;;;;;;;2.20;1.93;;;17.70;99.90;;;;;;5117479;28;20459;-63
2023/10/17 12:36:46;;;;;;;2.53;2.33;;;17.50;99.90;;;;;;5117945;28;20471;-63
2023/10/17 12:39:14;;;;;;;2.47;2.20;;;17.50;99.90;;;;;;5117893;28;20459;-63
2023/10/17 12:41:44;;;;;;;2.50;2.30;;;17.50;99.90;;;;;;5117779;28;20495;-63
2023/10/17 12:44:11;;;;;;;2.73;2.17;;;17.30;99.90;;;;;;5116573;28;20500;-63
2023/10/17 12:46:40;;;;;;;3.37;2.20;;;17.50;99.90;;;;;;5117492;28;20459;-62
2023/10/17 12:49:10;;;;;;;3.00;2.23;;;17.60;99.90;;;;;;5117204;28;20955;-63
2023/10/17 12:51:38;;;;;;;3.10;2.27;;;17.50;99.90;;;;;;5117923;28;20508;-62
2023/10/17 12:54:07;;;;;;;2.80;2.30;;;17.50;99.90;;;;;;5117868;28;20884;-62
2023/10/17 12:56:36;;;;;;;3.70;1.93;;;17.50;99.90;;;;;;5117684;28;20467;-63
2023/10/17 12:59:04;;;;;;;3.30;2.40;;;17.50;99.90;;;;;;5117360;28;20558;-63
2023/10/17 13:01:32;;;;;;;2.80;2.60;;;17.40;99.90;;;;;;5117504;28;20460;-62
2023/10/17 13:04:02;;;;;;;2.80;2.20;;;17.50;99.90;;;;;;5115112;28;21034;-62
2023/10/17 13:06:29;;;;;;;3.57;2.17;;;17.50;99.90;;;;;;5115891;28;20463;-62
2023/10/17 13:08:57;;;;;;;3.30;2.50;;;17.70;99.90;;;;;;5115765;28;20493;-62
2023/10/17 13:11:25;;;;;;;2.97;2.13;;;17.70;99.90;;;;;;5115745;28;20510;-62
2023/10/17 13:13:52;;;;;;;2.40;1.90;;;17.90;99.90;;;;;;5114903;28;20534;-62
2023/10/17 13:16:23;;;;;;;5.07;1.80;;;17.80;99.90;;;;;;5115284;28;20458;-62
2023/10/17 13:18:51;;;;;;;2.77;2.40;;;17.80;99.90;;;;;;5116676;28;20455;-61
2023/10/17 13:21:20;;;;;;;2.67;2.13;;;17.50;99.90;;;;;;5117122;28;20489;-62
2023/10/17 13:23:48;;;;;;;2.20;1.77;;;17.40;99.90;;;;;;5117282;28;20567;-62
2023/10/17 13:26:18;;;;;;;3.20;2.40;;;17.30;99.90;;;;;;5117271;28;20916;-61
2023/10/17 13:28:47;;;;;;;2.93;2.30;;;17.30;99.90;;;;;;5115411;28;20518;-61
2023/10/17 13:31:16;;;;;;;2.93;2.03;;;17.40;99.90;;;;;;5101911;28;20472;-62
2023/10/17 13:33:44;;;;;;;2.47;2.27;;;17.40;99.90;;;;;;5097170;28;20448;-62
2023/10/17 13:36:16;;;;;;;2.40;2.20;;;17.20;99.90;;;;;;5096734;28;20487;-62
2023/10/17 13:38:44;;;;;;;2.63;2.43;;;17.10;99.90;;;;;;5096817;28;20500;-62
2023/10/17 13:41:15;;;;;;;2.47;2.27;;;17.10;99.90;;;;;;5096947;28;20905;-62
2023/10/17 13:43:43;;;;;;;3.10;2.80;;;17.00;99.90;;;;;;5096796;28;20784;-62
2023/10/17 13:46:13;;;;;;;4.80;2.37;;;16.40;99.90;;;;;;5096505;28;20468;-63
2023/10/17 13:48:46;;;;;;;3.10;2.80;;;16.30;99.90;;;;;;5105167;28;20865;-63
2023/10/17 13:51:14;;;;;;;2.60;2.40;;;16.20;99.90;;;;;;5121243;28;20553;-62
2023/10/17 13:53:43;;;;;;;5.70;2.27;;;16.30;99.90;;;;;;5121114;28;20447;-62
2023/10/17 13:56:15;;;;;;;3.10;1.90;;;16.30;99.90;;;;;;5120410;28;20437;-62
2023/10/17 13:58:44;;;;;;;2.80;2.33;;;16.50;99.90;;;;;;5120879;28;20470;-63
2023/10/17 14:03:54;;;;;;;3.30;2.73;;;16.40;99.90;;;;;;5118540;28;20554;-62
2023/10/17 14:06:22;;;;;;;3.50;2.87;;;16.40;99.90;;;;;;5120570;28;20463;-63
2023/10/17 14:08:49;;;;;;;3.63;2.70;;;16.40;99.90;;;;;;5120685;28;20867;-62
2023/10/17 14:11:19;;;;;;;2.60;2.33;;;16.40;99.90;;;;;;5120602;28;20467;-62
2023/10/17 14:13:46;;;;;;;3.10;2.70;;;16.30;99.90;;;;;;5119147;28;20451;-62
2023/10/17 14:16:14;;;;;;;2.53;2.00;;;16.10;99.90;;;;;;5116853;28;20459;-62
2023/10/17 14:18:43;;;;;;;3.03;2.83;;;15.90;99.90;;;;;;5119409;28;20504;-63
2023/10/17 14:21:34;;;;;;;6.17;5.57;;;15.80;99.90;;;;;;5119097;28;20508;-62
2023/10/17 14:24:07;;;;;;;6.43;5.60;;;15.40;99.90;;;;;;5118682;28;20772;-63
2023/10/17 14:26:35;;;;;;;6.87;5.53;;;15.00;99.90;;;;;;5118224;28;20553;-62
2023/10/17 14:29:04;;;;;;;6.63;5.27;;;14.80;99.90;;;;;;5119116;28;20558;-62
2023/10/17 14:31:32;;;;;;;7.53;5.70;;;14.40;99.90;;;;;;5119183;28;20861;-62
2023/10/17 14:34:00;;;;;;;7.83;5.30;;;14.00;99.90;;;;;;5119132;28;20508;-62
2023/10/17 14:36:28;;;;;;;8.83;6.10;;;13.70;99.90;;;;;;5119664;28;20487;-62
2023/10/17 14:38:58;;;;;;;5.50;5.00;;;13.70;1.00;;;;;;5120514;28;20771;-61